createdAt,value
2022-10-19T00:00:49.440Z,85.58
2022-10-19T00:03:20.720Z,88.24
2022-10-19T00:05:50.894Z,83.04
2022-10-19T00:08:18.638Z,78.84
2022-10-19T00:10:47.838Z,80.66
2022-10-19T00:13:15.566Z,82.94
2022-10-19T00:15:43.415Z,79.65
2022-10-19T00:18:11.460Z,88.88
2022-10-19T00:20:39.331Z,85.97
2022-10-19T00:23:07.015Z,93.26
2022-10-19T00:25:34.792Z,96.26
2022-10-19T00:28:04.008Z,100.00
2022-10-19T00:30:31.771Z,100.00
2022-10-19T00:32:59.532Z,92.05
2022-10-19T00:35:27.346Z,87.32
2022-10-19T00:37:55.060Z,87.77
2022-10-19T00:40:22.780Z,90.01
2022-10-19T00:42:55.673Z,90.20
2022-10-19T00:45:24.847Z,86.66
2022-10-19T00:47:52.732Z,89.05
2022-10-19T00:50:20.942Z,99.01
2022-10-19T00:52:48.732Z,99.85
2022-10-19T00:55:16.463Z,99.87
2022-10-19T00:57:44.267Z,100.00
2022-10-19T01:00:12.569Z,100.00
2022-10-19T01:02:41.629Z,100.00
2022-10-19T01:05:10.239Z,100.00
2022-10-19T01:07:37.994Z,90.30
2022-10-19T01:10:06.733Z,95.79
2022-10-19T01:12:47.055Z,95.21
2022-10-19T01:15:22.916Z,98.19
2022-10-19T01:17:58.271Z,95.66
2022-10-19T01:20:58.329Z,85.98
2022-10-19T01:23:41.260Z,99.99
2022-10-19T01:26:20.124Z,94.37
2022-10-19T01:28:57.067Z,89.06
2022-10-19T01:31:28.964Z,98.87
2022-10-19T01:34:00.895Z,100.00
2022-10-19T01:36:34.421Z,83.24
2022-10-19T01:39:06.817Z,79.55
2022-10-19T01:41:39.461Z,83.81
2022-10-19T01:44:12.804Z,84.42
2022-10-19T01:46:44.325Z,87.99
2022-10-19T01:49:21.184Z,89.25
2022-10-19T01:51:51.406Z,88.04
2022-10-19T01:54:20.396Z,92.23
2022-10-19T01:56:49.305Z,84.11
2022-10-19T01:59:18.552Z,82.55
2022-10-19T02:01:49.836Z,94.00
2022-10-19T02:04:20.426Z,98.01
2022-10-19T02:06:48.186Z,95.08
2022-10-19T02:09:18.257Z,98.54
2022-10-19T02:11:49.659Z,100.00
2022-10-19T02:14:21.640Z,100.00
2022-10-19T02:16:53.857Z,100.00
2022-10-19T02:21:55.209Z,92.53
2022-10-19T02:24:22.922Z,95.10
2022-10-19T02:26:50.772Z,100.00
2022-10-19T02:29:18.527Z,90.58
2022-10-19T02:31:46.372Z,90.30
2022-10-19T02:34:15.580Z,96.41
2022-10-19T02:36:43.532Z,84.11
2022-10-19T02:39:11.322Z,91.48
2022-10-19T02:41:41.894Z,87.54
2022-10-19T02:44:16.552Z,86.28
2022-10-19T02:46:46.633Z,77.38
2022-10-19T02:49:16.097Z,84.13
2022-10-19T02:51:58.618Z,83.81
2022-10-19T02:54:26.384Z,90.81
2022-10-19T02:56:54.133Z,83.32
2022-10-19T02:59:21.873Z,97.48
2022-10-19T03:01:49.871Z,100.00
2022-10-19T03:04:19.185Z,100.00
2022-10-19T03:06:47.313Z,91.71
2022-10-19T03:09:15.022Z,95.58
2022-10-19T03:11:42.876Z,86.19
2022-10-19T03:14:10.626Z,91.28
2022-10-19T03:16:38.425Z,100.00
2022-10-19T03:19:06.129Z,93.51
2022-10-19T03:21:36.446Z,92.10
2022-10-19T03:24:04.246Z,84.26
2022-10-19T03:26:32.062Z,86.28
2022-10-19T03:28:59.848Z,100.00
2022-10-19T03:31:27.646Z,100.00
2022-10-19T03:33:55.347Z,100.00
2022-10-19T03:36:24.847Z,100.00
2022-10-19T03:38:55.359Z,100.00
2022-10-19T03:41:24.357Z,100.00
2022-10-19T03:43:52.485Z,100.00
2022-10-19T03:46:20.390Z,100.00
2022-10-19T03:48:48.572Z,96.00
2022-10-19T03:51:17.784Z,100.00
2022-10-19T03:53:45.908Z,100.00
2022-10-19T03:56:17.436Z,95.41
2022-10-19T03:58:46.036Z,100.00
2022-10-19T04:01:15.822Z,100.00
2022-10-19T04:03:44.236Z,100.00
2022-10-19T04:06:16.954Z,100.00
2022-10-19T04:08:49.819Z,100.00
2022-10-19T04:11:21.353Z,100.00
2022-10-19T04:13:50.224Z,100.00
2022-10-19T04:16:18.370Z,99.41
2022-10-19T04:18:46.243Z,98.65
2022-10-19T04:21:22.644Z,90.11
2022-10-19T04:23:51.509Z,95.24
2022-10-19T04:26:21.604Z,86.76
2022-10-19T04:28:49.555Z,100.00
2022-10-19T04:31:17.406Z,100.00
2022-10-19T04:36:17.802Z,87.96
2022-10-19T04:38:45.533Z,79.88
2022-10-19T04:41:14.828Z,84.29
2022-10-19T04:43:45.240Z,87.61
2022-10-19T04:46:14.490Z,72.94
2022-10-19T04:48:42.840Z,93.13
2022-10-19T04:51:11.287Z,82.90
2022-10-19T04:53:40.425Z,77.68
2022-10-19T04:56:10.992Z,82.35
2022-10-19T04:58:38.853Z,83.97
2022-10-19T05:01:12.244Z,91.02
2022-10-19T05:03:40.463Z,99.72
2022-10-19T05:06:09.090Z,81.88
2022-10-19T05:08:37.721Z,74.00
2022-10-19T05:11:07.299Z,99.08
2022-10-19T05:13:35.793Z,81.70
2022-10-19T05:16:07.476Z,97.65
2022-10-19T05:18:37.151Z,81.16
2022-10-19T05:21:07.360Z,93.44
2022-10-19T05:23:37.541Z,90.65
2022-10-19T05:26:07.452Z,99.61
2022-10-19T05:28:35.517Z,77.35
2022-10-19T05:31:08.361Z,65.33
2022-10-19T05:33:38.269Z,82.15
2022-10-19T05:36:14.431Z,84.02
2022-10-19T05:38:42.270Z,88.38
2022-10-19T05:41:11.975Z,91.11
2022-10-19T05:43:40.648Z,99.85
2022-10-19T05:46:10.010Z,97.82
2022-10-19T05:48:39.668Z,99.60
2022-10-19T05:51:11.851Z,100.00
2022-10-19T05:53:39.746Z,100.00
2022-10-19T05:56:08.566Z,100.00
2022-10-19T05:58:36.814Z,100.00
2022-10-19T06:01:04.670Z,100.00
2022-10-19T06:03:32.364Z,90.17
2022-10-19T06:06:04.439Z,86.58
2022-10-19T06:08:32.294Z,100.00
2022-10-19T06:11:06.470Z,92.93
2022-10-19T06:13:34.296Z,94.20
2022-10-19T06:16:01.984Z,100.00
2022-10-19T06:18:29.807Z,93.44
2022-10-19T06:21:02.014Z,100.00
2022-10-19T06:23:31.598Z,100.00
2022-10-19T06:25:59.737Z,100.00
2022-10-19T06:28:27.532Z,100.00
2022-10-19T06:30:55.361Z,100.00
2022-10-19T06:33:23.149Z,100.00
2022-10-19T06:35:50.902Z,100.00
2022-10-19T06:38:19.141Z,100.00
2022-10-19T06:40:49.100Z,100.00
2022-10-19T06:43:17.325Z,100.00
2022-10-19T06:45:45.213Z,100.00
2022-10-19T06:48:12.920Z,100.00
2022-10-19T06:50:40.628Z,100.00
2022-10-19T06:53:08.446Z,100.00
2022-10-19T06:55:37.380Z,100.00
2022-10-19T06:58:06.458Z,100.00
2022-10-19T07:00:34.253Z,100.00
2022-10-19T07:03:02.008Z,100.00
2022-10-19T07:05:29.715Z,100.00
2022-10-19T07:07:58.377Z,91.76
2022-10-19T07:10:26.132Z,100.00
2022-10-19T07:12:53.906Z,100.00
2022-10-19T07:15:23.011Z,100.00
2022-10-19T07:17:50.796Z,97.38
2022-10-19T07:20:18.654Z,91.39
2022-10-19T07:22:46.387Z,98.67
2022-10-19T07:25:14.138Z,93.11
2022-10-19T07:27:42.163Z,100.00
2022-10-19T07:30:10.519Z,100.00
2022-10-19T07:32:43.120Z,99.74
2022-10-19T07:35:13.806Z,100.00
2022-10-19T07:37:41.807Z,81.08
2022-10-19T07:40:10.699Z,89.64
2022-10-19T07:42:39.206Z,100.00
2022-10-19T07:45:07.871Z,93.46
2022-10-19T07:47:40.078Z,100.00
2022-10-19T07:50:08.194Z,100.00
2022-10-19T07:52:37.045Z,84.54
2022-10-19T07:55:05.475Z,88.91
2022-10-19T07:57:33.255Z,92.17
2022-10-19T08:00:02.188Z,71.72
2022-10-19T08:02:59.799Z,87.70
2022-10-19T08:05:29.144Z,83.69
2022-10-19T08:07:57.140Z,83.05
2022-10-19T08:10:24.890Z,83.78
2022-10-19T08:12:53.912Z,74.15
2022-10-19T08:15:21.646Z,72.34
2022-10-19T08:17:50.775Z,66.83
2022-10-19T08:20:18.599Z,71.46
2022-10-19T08:22:46.870Z,87.14
2022-10-19T08:25:14.579Z,84.67
2022-10-19T08:27:42.371Z,73.66
2022-10-19T08:30:10.835Z,100.00
2022-10-19T08:32:38.575Z,89.05
2022-10-19T08:35:10.863Z,100.00
2022-10-19T08:37:44.820Z,100.00
2022-10-19T08:40:18.646Z,100.00
2022-10-19T08:42:52.301Z,94.77
2022-10-19T08:45:26.865Z,87.61
2022-10-19T08:48:00.584Z,96.56
2022-10-19T08:50:35.555Z,100.00
2022-10-19T08:53:06.252Z,100.00
2022-10-19T08:55:42.102Z,97.51
2022-10-19T08:58:21.992Z,93.16
2022-10-19T09:00:54.256Z,69.27
2022-10-19T09:03:37.768Z,89.21
2022-10-19T09:06:22.970Z,69.75
2022-10-19T09:08:52.008Z,76.20
2022-10-19T09:11:25.818Z,68.13
2022-10-19T09:14:05.041Z,64.02
2022-10-19T09:16:34.775Z,58.43
2022-10-19T09:19:02.864Z,56.08
2022-10-19T09:21:43.266Z,87.17
2022-10-19T09:24:22.678Z,77.15
2022-10-19T09:26:53.396Z,66.45
2022-10-19T09:29:25.533Z,61.23
2022-10-19T09:31:55.126Z,57.38
2022-10-19T09:34:25.267Z,55.67
2022-10-19T09:36:57.325Z,54.41
2022-10-19T09:39:29.317Z,58.50
2022-10-19T09:41:59.177Z,60.57
2022-10-19T09:44:27.854Z,55.54
2022-10-19T09:47:01.904Z,57.34
2022-10-19T09:49:44.898Z,69.51
2022-10-19T09:52:33.773Z,68.92
2022-10-19T09:55:03.520Z,60.19
2022-10-19T09:57:31.703Z,65.45
2022-10-19T09:59:59.945Z,58.22
2022-10-19T10:02:32.314Z,58.83
2022-10-19T10:05:06.819Z,53.34
2022-10-19T10:07:38.087Z,55.28
2022-10-19T10:10:12.202Z,57.88
2022-10-19T10:12:41.377Z,62.78
2022-10-19T10:15:09.879Z,63.16
2022-10-19T10:17:38.437Z,56.79
2022-10-19T10:20:20.820Z,49.96
2022-10-19T10:22:57.555Z,56.08
2022-10-19T10:25:28.360Z,53.98
2022-10-19T10:27:58.808Z,50.28
2022-10-19T10:30:28.316Z,48.16
2022-10-19T10:33:00.359Z,50.36
2022-10-19T10:35:36.499Z,52.58
2022-10-19T10:38:16.166Z,57.91
2022-10-19T10:40:50.665Z,50.05
2022-10-19T10:43:18.897Z,48.72
2022-10-19T10:45:48.166Z,45.25
2022-10-19T10:48:23.549Z,48.09
2022-10-19T10:50:52.015Z,44.59
2022-10-19T10:53:38.587Z,46.56
2022-10-19T10:56:21.925Z,43.24
2022-10-19T10:58:53.615Z,43.63
2022-10-19T11:01:23.795Z,43.99
2022-10-19T11:03:55.521Z,43.60
2022-10-19T11:09:07.087Z,43.00
2022-10-19T11:11:37.536Z,43.02
2022-10-19T11:14:23.787Z,45.01
2022-10-19T11:16:53.417Z,41.79
2022-10-19T11:19:23.855Z,41.84
2022-10-19T11:21:57.612Z,41.72
2022-10-19T11:24:34.737Z,37.60
2022-10-19T11:27:10.840Z,39.13
2022-10-19T11:29:50.862Z,40.58
2022-10-19T11:32:25.255Z,40.23
2022-10-19T11:35:05.064Z,41.14
2022-10-19T11:37:45.480Z,39.30
2022-10-19T11:40:23.478Z,38.75
2022-10-19T11:42:57.196Z,39.58
2022-10-19T11:45:40.340Z,37.17
2022-10-19T11:48:52.920Z,35.63
2022-10-19T11:51:28.973Z,32.71
2022-10-19T11:54:14.602Z,32.78
2022-10-19T11:57:03.314Z,32.72
2022-10-19T11:59:38.457Z,28.87
2022-10-19T12:02:21.530Z,29.35
2022-10-19T12:04:54.433Z,29.18
2022-10-19T12:07:38.895Z,30.92
2022-10-19T12:10:13.808Z,31.06
2022-10-19T12:12:45.451Z,34.03
2022-10-19T12:15:19.023Z,34.80
2022-10-19T12:17:49.448Z,36.31
2022-10-19T12:20:22.579Z,35.52
2022-10-19T12:22:50.711Z,35.11
2022-10-19T12:25:19.557Z,37.37
2022-10-19T12:27:50.571Z,35.45
2022-10-19T12:30:20.275Z,35.50
2022-10-19T12:32:57.166Z,35.93
2022-10-19T12:35:37.022Z,33.02
2022-10-19T12:38:07.786Z,32.57
2022-10-19T12:40:38.794Z,34.47
2022-10-19T12:43:12.259Z,34.67
2022-10-19T12:45:42.784Z,35.83
2022-10-19T12:48:24.581Z,37.00
2022-10-19T12:51:13.542Z,35.41
2022-10-19T12:53:44.371Z,35.88
2022-10-19T12:56:16.606Z,34.06
2022-10-19T12:58:54.560Z,34.12
2022-10-19T13:01:25.579Z,35.67
2022-10-19T13:04:07.104Z,35.35
2022-10-19T13:06:36.770Z,30.57
2022-10-19T13:09:06.542Z,29.35
2022-10-19T13:14:42.483Z,31.55
2022-10-19T13:17:10.255Z,31.03
2022-10-19T13:19:38.003Z,28.56
2022-10-19T13:22:27.956Z,26.00
2022-10-19T13:25:23.578Z,25.26
2022-10-19T13:27:52.474Z,27.33
2022-10-19T13:31:08.149Z,24.63
2022-10-19T13:33:50.745Z,26.69
2022-10-19T13:36:19.630Z,24.26
2022-10-19T13:38:49.594Z,23.76
2022-10-19T13:41:21.542Z,24.22
2022-10-19T13:43:57.678Z,24.23
2022-10-19T13:46:39.767Z,25.82
2022-10-19T13:49:29.067Z,30.24
2022-10-19T13:52:16.368Z,29.57
2022-10-19T13:55:28.569Z,31.15
2022-10-19T13:58:14.122Z,29.17
2022-10-19T14:00:54.425Z,28.95
2022-10-19T14:03:30.876Z,29.93
2022-10-19T14:06:11.274Z,30.61
2022-10-19T14:08:57.467Z,26.39
2022-10-19T14:11:27.798Z,26.38
2022-10-19T14:14:12.421Z,25.31
2022-10-19T14:16:47.415Z,27.03
2022-10-19T14:19:26.729Z,27.79
2022-10-19T14:21:56.360Z,28.42
2022-10-19T14:24:32.605Z,27.40
2022-10-19T14:27:05.264Z,24.03
2022-10-19T14:29:37.083Z,24.44
2022-10-19T14:32:05.278Z,25.24
2022-10-19T14:34:34.400Z,24.67
2022-10-19T14:37:02.207Z,24.84
2022-10-19T14:39:32.745Z,25.16
2022-10-19T14:42:04.821Z,23.95
2022-10-19T14:44:42.879Z,24.58
2022-10-19T14:47:20.150Z,24.60
2022-10-19T14:49:49.837Z,27.23
2022-10-19T14:52:21.876Z,25.21
2022-10-19T14:54:52.617Z,24.17
2022-10-19T14:57:24.732Z,22.63
2022-10-19T14:59:54.034Z,25.08
2022-10-19T15:02:24.183Z,26.50
2022-10-19T15:04:54.239Z,27.98
2022-10-19T15:07:24.515Z,27.77
2022-10-19T15:09:55.261Z,25.29
2022-10-19T15:12:28.285Z,24.73
2022-10-19T15:14:56.320Z,23.68
2022-10-19T15:17:26.977Z,25.39
2022-10-19T15:19:56.726Z,25.78
2022-10-19T15:22:38.612Z,25.60
2022-10-19T15:25:28.914Z,28.50
2022-10-19T15:27:57.668Z,28.31
2022-10-19T15:30:28.501Z,27.02
2022-10-19T15:33:11.781Z,27.49
2022-10-19T15:35:42.406Z,27.65
2022-10-19T15:38:27.297Z,28.31
2022-10-19T15:40:57.916Z,30.42
2022-10-19T15:43:37.509Z,31.06
2022-10-19T15:46:06.826Z,32.82
2022-10-19T15:48:51.128Z,33.43
2022-10-19T15:51:54.695Z,35.37
2022-10-19T15:54:23.872Z,37.59
2022-10-19T15:56:53.924Z,36.33
2022-10-19T15:59:23.818Z,33.81
2022-10-19T16:01:53.787Z,35.57
2022-10-19T16:04:23.796Z,36.62
2022-10-19T16:06:52.879Z,37.11
2022-10-19T16:09:22.359Z,39.70
2022-10-19T16:11:56.138Z,38.82
2022-10-19T16:14:23.933Z,38.60
2022-10-19T16:16:51.696Z,41.57
2022-10-19T16:19:19.448Z,39.48
2022-10-19T16:21:50.262Z,39.50
2022-10-19T16:24:19.776Z,42.61
2022-10-19T16:26:47.505Z,44.08
2022-10-19T16:29:15.230Z,44.59
2022-10-19T16:31:42.951Z,45.58
2022-10-19T16:34:10.670Z,44.50
2022-10-19T16:36:38.398Z,47.04
2022-10-19T16:39:06.228Z,49.04
2022-10-19T16:41:35.357Z,45.48
2022-10-19T16:44:03.167Z,46.09
2022-10-19T16:46:30.927Z,47.10
2022-10-19T16:48:58.647Z,52.26
2022-10-19T16:51:29.624Z,54.77
2022-10-19T16:53:58.980Z,54.79
2022-10-19T16:56:29.030Z,55.79
2022-10-19T16:59:00.764Z,54.51
2022-10-19T17:01:29.592Z,55.26
2022-10-19T17:03:57.973Z,54.18
2022-10-19T17:06:26.617Z,56.47
2022-10-19T17:11:44.234Z,54.94
2022-10-19T17:14:14.031Z,53.41
2022-10-19T17:16:41.947Z,54.21
2022-10-19T17:19:11.101Z,53.91
2022-10-19T17:21:41.972Z,60.13
2022-10-19T17:24:18.676Z,57.10
2022-10-19T17:26:47.991Z,58.82
2022-10-19T17:29:17.075Z,67.03
2022-10-19T17:31:44.884Z,69.99
2022-10-19T17:34:13.098Z,70.42
2022-10-19T17:36:44.201Z,69.50
2022-10-19T17:39:15.944Z,62.87
2022-10-19T17:41:43.668Z,65.39
2022-10-19T17:44:11.801Z,72.59
2022-10-19T17:46:41.105Z,73.15
2022-10-19T17:49:09.781Z,63.92
2022-10-19T17:51:38.901Z,60.69
2022-10-19T17:54:08.563Z,60.43
2022-10-19T17:56:37.713Z,61.02
2022-10-19T17:59:07.523Z,58.51
2022-10-19T18:01:35.726Z,61.23
2022-10-19T18:04:05.215Z,67.88
2022-10-19T18:06:34.876Z,65.99
2022-10-19T18:09:05.276Z,65.89
2022-10-19T18:11:36.944Z,70.49
2022-10-19T18:14:05.652Z,70.67
2022-10-19T18:16:34.818Z,68.97
2022-10-19T18:19:05.177Z,68.08
2022-10-19T18:21:34.175Z,69.76
2022-10-19T18:24:03.242Z,63.77
2022-10-19T18:26:33.616Z,64.60
2022-10-19T18:29:03.076Z,62.96
2022-10-19T18:31:31.751Z,62.79
2022-10-19T18:34:00.781Z,55.72
2022-10-19T18:36:30.505Z,53.35
2022-10-19T18:38:59.683Z,51.09
2022-10-19T18:41:28.149Z,51.29
2022-10-19T18:43:57.443Z,54.91
2022-10-19T18:46:26.609Z,55.77
2022-10-19T18:48:54.668Z,53.81
2022-10-19T18:51:23.630Z,53.38
2022-10-19T18:53:56.384Z,56.63
2022-10-19T18:56:24.560Z,59.42
2022-10-19T18:58:52.420Z,60.09
2022-10-19T19:01:22.905Z,57.74
2022-10-19T19:03:52.446Z,54.39
2022-10-19T19:06:22.041Z,52.97
2022-10-19T19:08:59.241Z,52.33
2022-10-19T19:11:32.956Z,56.79
2022-10-19T19:14:06.143Z,57.13
2022-10-19T19:16:35.809Z,55.86
2022-10-19T19:19:03.949Z,52.99
2022-10-19T19:21:38.326Z,53.35
2022-10-19T19:24:07.657Z,51.73
2022-10-19T19:26:40.333Z,51.28
2022-10-19T19:29:08.232Z,51.29
2022-10-19T19:31:36.161Z,50.94
2022-10-19T19:34:05.788Z,50.64
2022-10-19T19:36:33.703Z,50.97
2022-10-19T19:39:01.797Z,51.89
2022-10-19T19:41:31.180Z,53.35
2022-10-19T19:44:00.421Z,53.10
2022-10-19T19:46:28.516Z,52.54
2022-10-19T19:49:00.035Z,53.79
2022-10-19T19:51:29.231Z,53.70
2022-10-19T19:53:57.028Z,51.10
2022-10-19T19:56:24.781Z,57.39
2022-10-19T19:58:55.912Z,56.80
2022-10-19T20:01:25.509Z,51.57
2022-10-19T20:03:53.436Z,51.42
2022-10-19T20:06:25.021Z,52.84
2022-10-19T20:08:54.223Z,51.44
2022-10-19T20:11:22.044Z,51.29
2022-10-19T20:13:49.854Z,50.13
2022-10-19T20:16:18.854Z,49.84
2022-10-19T20:18:49.443Z,53.25
2022-10-19T20:21:18.070Z,54.41
2022-10-19T20:23:46.751Z,51.64
2022-10-19T20:26:18.179Z,51.74
2022-10-19T20:28:46.387Z,50.25
2022-10-19T20:31:15.093Z,51.10
2022-10-19T20:33:44.068Z,50.77
2022-10-19T20:36:14.797Z,50.85
2022-10-19T20:38:47.229Z,50.97
2022-10-19T20:41:15.023Z,51.71
2022-10-19T20:43:42.750Z,50.83
2022-10-19T20:46:12.940Z,50.95
2022-10-19T20:48:41.227Z,52.62
2022-10-19T20:51:10.821Z,53.46
2022-10-19T20:53:40.314Z,54.14
2022-10-19T20:56:09.632Z,55.37
2022-10-19T20:58:38.723Z,54.86
2022-10-19T21:01:08.448Z,58.31
2022-10-19T21:03:36.269Z,59.69
2022-10-19T21:06:05.672Z,61.84
2022-10-19T21:08:34.730Z,60.77
2022-10-19T21:11:12.513Z,61.70
2022-10-19T21:13:40.346Z,59.38
2022-10-19T21:16:12.138Z,58.20
2022-10-19T21:18:40.336Z,60.91
2022-10-19T21:21:15.735Z,66.61
2022-10-19T21:23:44.362Z,64.20
2022-10-19T21:26:14.361Z,61.70
2022-10-19T21:28:47.016Z,67.66
2022-10-19T21:31:15.025Z,63.57
2022-10-19T21:33:42.791Z,61.80
2022-10-19T21:36:11.363Z,60.39
2022-10-19T21:38:39.471Z,60.40
2022-10-19T21:41:09.586Z,58.14
2022-10-19T21:43:38.656Z,57.49
2022-10-19T21:46:08.947Z,58.43
2022-10-19T21:48:36.670Z,57.50
2022-10-19T21:51:13.093Z,58.85
2022-10-19T21:53:40.818Z,58.09
2022-10-19T21:56:08.526Z,62.67
2022-10-19T21:58:37.779Z,64.43
2022-10-19T22:01:06.226Z,67.34
2022-10-19T22:03:34.677Z,67.53
2022-10-19T22:06:02.978Z,68.07
2022-10-19T22:08:30.716Z,67.37
2022-10-19T22:10:58.473Z,62.39
2022-10-19T22:13:26.265Z,57.63
2022-10-19T22:15:55.373Z,56.61
2022-10-19T22:18:23.069Z,55.46
2022-10-19T22:20:50.769Z,55.61
2022-10-19T22:23:18.490Z,57.23
2022-10-19T22:25:46.255Z,58.67
2022-10-19T22:28:14.022Z,57.57
2022-10-19T22:30:44.972Z,58.01
2022-10-19T22:33:14.567Z,60.98
2022-10-19T22:35:42.312Z,56.62
2022-10-19T22:38:10.007Z,55.43
2022-10-19T22:40:37.726Z,54.88
2022-10-19T22:43:06.798Z,54.36
2022-10-19T22:45:34.770Z,53.91
2022-10-19T22:48:02.807Z,54.28
2022-10-19T22:50:31.869Z,53.65
2022-10-19T22:52:59.666Z,56.08
2022-10-19T22:55:27.372Z,64.98
2022-10-19T22:57:55.108Z,63.35
2022-10-19T23:00:22.847Z,68.22
2022-10-19T23:02:50.603Z,80.56
2022-10-19T23:05:18.441Z,81.24
2022-10-19T23:07:47.533Z,87.22
2022-10-19T23:10:15.521Z,90.90
2022-10-19T23:12:43.307Z,87.65
2022-10-19T23:15:11.783Z,83.75
2022-10-19T23:17:39.492Z,84.29
2022-10-19T23:20:08.420Z,80.22
2022-10-19T23:22:36.186Z,83.33
2022-10-19T23:25:06.036Z,85.33
2022-10-19T23:27:34.525Z,81.53
2022-10-19T23:30:03.418Z,82.23
2022-10-19T23:32:31.286Z,91.42
2022-10-19T23:34:59.020Z,89.30
2022-10-19T23:37:26.915Z,90.25
2022-10-19T23:39:54.626Z,98.66
2022-10-19T23:42:23.733Z,99.43
2022-10-19T23:44:51.435Z,100.00
2022-10-19T23:47:19.189Z,100.00
2022-10-19T23:49:46.866Z,96.56
2022-10-19T23:52:14.560Z,98.96
2022-10-19T23:54:42.492Z,100.00
2022-10-19T23:57:10.313Z,100.00
2022-10-19T23:59:39.369Z,98.53
